Time;durP1;ratioP1;P1;durP2;ratioP2;P2;SDS_P1;SDS_P2;PMS_P1;PMS_P2;Temp;Humidity;BMP_temperature;BMP_pressure;BME280_temperature;BME280_humidity;BME280_pressure;Samples;Min_cycle;Max_cycle;Signal;HPM_P1;HPM_P2
2022/07/15 00:02:12;;;;;;;3.03;2.40;;;24.70;41.80;;;25.01;31.01;98935.41;4985332;28;123894;-86
2022/07/15 00:04:38;;;;;;;5.57;2.10;;;24.60;41.90;;;24.98;31.21;98939.03;4987653;28;122936;-85
2022/07/15 00:07:06;;;;;;;5.27;2.37;;;24.60;42.20;;;24.95;31.29;98934.19;4983036;28;109921;-87
2022/07/15 00:12:18;;;;;;;3.87;2.40;;;24.50;42.40;;;24.86;31.53;98936.66;4988199;28;124575;-87
2022/07/15 00:14:45;;;;;;;3.60;2.03;;;24.50;42.60;;;24.82;31.44;98933.81;4981542;28;124684;-87
2022/07/15 00:17:12;;;;;;;2.13;1.80;;;24.50;42.70;;;24.80;31.38;98938.28;4983102;28;110137;-87
2022/07/15 00:19:39;;;;;;;3.03;1.93;;;24.40;42.70;;;24.76;31.56;98934.63;4989058;28;109031;-87
2022/07/15 00:22:05;;;;;;;4.77;2.20;;;24.40;42.90;;;24.72;31.66;98930.97;4987956;28;124024;-87
2022/07/15 00:24:32;;;;;;;3.23;2.03;;;24.40;43.00;;;24.71;31.84;98938.66;4980791;28;124883;-88
2022/07/15 00:26:58;;;;;;;3.60;1.93;;;24.30;43.10;;;24.68;31.98;98937.44;4987543;28;108220;-88
2022/07/15 00:29:28;;;;;;;6.43;2.23;;;24.30;43.20;;;24.64;31.75;98935.84;4986183;28;109497;-88
2022/07/15 00:31:55;;;;;;;3.60;2.00;;;24.30;43.20;;;24.59;31.58;98931.41;4997227;28;124228;-88
2022/07/15 00:34:21;;;;;;;2.50;1.83;;;24.20;43.20;;;24.54;32.07;98936.66;4983456;28;123704;-87
2022/07/15 00:36:48;;;;;;;3.53;2.10;;;24.20;43.30;;;24.49;32.38;98931.41;4986362;28;109116;-87
2022/07/15 00:39:16;;;;;;;3.83;2.03;;;24.10;43.30;;;24.43;32.47;98939.44;4992353;28;108929;-88
2022/07/15 00:41:44;;;;;;;3.17;2.27;;;24.10;43.60;;;24.36;32.59;98943.06;4986671;28;124572;-88
2022/07/15 00:44:11;;;;;;;3.10;2.13;;;24.00;43.70;;;24.31;32.71;98937.00;4988723;28;124160;-87
2022/07/15 00:46:39;;;;;;;3.53;2.30;;;24.00;43.90;;;24.25;32.75;98933.78;4990613;28;109247;-88
2022/07/15 00:49:08;;;;;;;5.70;2.40;;;23.90;44.00;;;24.17;32.96;98941.41;4990527;28;108939;-88
2022/07/15 00:51:42;;;;;;;2.93;2.13;;;23.90;44.10;;;24.11;33.18;98930.94;4991041;28;124361;-88
2022/07/15 00:54:15;;;;;;;2.10;1.90;;;23.80;44.20;;;24.05;33.08;98938.19;4978971;28;123652;-88
2022/07/15 00:56:49;;;;;;;4.00;2.30;;;23.70;44.30;;;23.99;33.16;98937.75;4990349;28;109172;-88
2022/07/15 00:59:17;;;;;;;2.77;2.00;;;23.70;44.50;;;23.91;33.18;98934.13;4995127;28;109166;-88
2022/07/15 01:01:45;;;;;;;2.63;2.10;;;23.60;44.40;;;23.84;33.31;98933.28;4991912;28;124403;-88
2022/07/15 01:04:13;;;;;;;2.30;1.90;;;23.50;44.50;;;23.77;33.29;98936.88;4986505;28;123850;-88
2022/07/15 01:06:40;;;;;;;3.60;2.13;;;23.40;44.50;;;23.72;33.43;98935.28;4992781;28;110097;-89
2022/07/15 01:09:06;;;;;;;5.60;2.53;;;23.40;44.60;;;23.69;33.18;98943.69;4991216;28;110331;-89
2022/07/15 01:11:33;;;;;;;2.97;2.10;;;23.30;44.60;;;23.66;33.65;98939.63;4991027;28;124811;-88
2022/07/15 01:14:00;;;;;;;2.90;2.03;;;23.30;44.70;;;23.64;33.55;98936.41;4989007;28;123738;-88
2022/07/15 01:16:27;;;;;;;5.60;2.33;;;23.30;45.00;;;23.59;33.76;98943.25;4993880;28;112153;-88
2022/07/15 01:18:55;;;;;;;5.43;2.13;;;23.20;44.90;;;23.58;33.46;98946.47;4989259;28;109466;-88
2022/07/15 01:21:22;;;;;;;9.63;2.10;;;23.20;44.90;;;23.58;33.76;98943.63;4982200;28;124189;-89
2022/07/15 01:23:49;;;;;;;2.10;1.80;;;23.20;45.10;;;23.59;33.89;98943.25;4989341;28;123181;-89
2022/07/15 01:26:16;;;;;;;3.80;2.23;;;22.80;45.00;;;23.59;33.77;98945.28;4992573;28;109371;-88
2022/07/15 01:28:43;;;;;;;5.20;2.33;;;23.20;45.40;;;23.58;34.00;98950.09;4992196;28;108686;-89
2022/07/15 01:31:10;;;;;;;2.37;1.83;;;23.20;45.40;;;23.58;33.76;98950.09;4992006;28;123992;-88
2022/07/15 01:33:38;;;;;;;2.03;1.80;;;23.10;45.30;;;23.58;33.69;98955.72;4992174;28;124258;-88
2022/07/15 01:36:05;;;;;;;3.93;1.93;;;23.40;45.60;;;23.56;33.72;98951.69;4988526;28;108663;-89
2022/07/15 01:38:32;;;;;;;4.50;1.80;;;23.10;45.40;;;23.58;33.79;98949.28;4991139;28;108638;-89
2022/07/15 01:40:58;;;;;;;3.20;1.87;;;23.10;45.30;;;23.56;33.56;98952.50;5002719;28;123998;-89
2022/07/15 01:43:25;;;;;;;4.97;1.97;;;23.10;45.20;;;23.54;33.36;98948.47;4995181;28;123547;-88
2022/07/15 01:45:51;;;;;;;2.80;1.90;;;23.10;45.00;;;23.51;33.43;98949.28;4991948;28;109342;-89
2022/07/15 01:51:03;;;;;;;2.47;1.67;;;23.10;45.00;;;23.45;33.60;98950.81;4980894;28;125101;-90
2022/07/15 01:53:33;;;;;;;2.60;1.93;;;23.00;44.90;;;23.43;33.42;98945.59;4989668;28;123806;-89
2022/07/15 01:56:00;;;;;;;4.10;1.67;;;23.00;45.00;;;23.43;33.58;98947.59;4991324;28;110371;-88
2022/07/15 01:58:26;;;;;;;3.50;1.70;;;23.00;45.00;;;23.40;33.81;98946.41;4995865;28;109800;-90
2022/07/15 02:00:53;;;;;;;4.70;2.07;;;23.00;45.10;;;23.38;33.59;98941.13;4980035;28;124603;-89
2022/07/15 02:03:20;;;;;;;2.60;2.00;;;23.00;45.20;;;23.35;33.74;98941.94;4991371;28;123941;-88
2022/07/15 02:05:46;;;;;;;4.60;1.90;;;22.90;45.00;;;23.34;33.47;98945.94;4990138;28;109077;-87
2022/07/15 02:08:14;;;;;;;8.70;1.97;;;22.90;44.90;;;23.32;33.40;98937.09;4992043;28;109036;-87
2022/07/15 02:10:40;;;;;;;5.07;2.40;;;22.90;44.90;;;23.31;33.67;98940.28;4989601;28;124056;-87
2022/07/15 02:13:09;;;;;;;4.00;2.20;;;22.90;44.90;;;23.29;33.47;98949.16;4990843;28;123045;-88
2022/07/15 02:15:37;;;;;;;3.73;2.17;;;22.90;45.00;;;23.28;33.62;98946.72;4984239;28;109704;-87
2022/07/15 02:18:06;;;;;;;2.00;1.67;;;22.90;45.10;;;23.26;33.84;98947.09;4996810;28;107376;-86
2022/07/15 02:20:34;;;;;;;10.03;2.07;;;22.80;45.20;;;23.26;33.90;98943.47;4995962;28;123639;-87
2022/07/15 02:23:01;;;;;;;2.10;1.77;;;22.80;45.30;;;23.25;33.71;98945.50;4970946;28;123269;-88
2022/07/15 02:25:31;;;;;;;3.17;1.73;;;22.80;45.30;;;23.22;33.54;98937.84;4993577;28;109362;-87
2022/07/15 02:28:02;;;;;;;2.03;1.70;;;22.80;45.30;;;23.21;33.88;98944.66;4994741;28;108864;-87
2022/07/15 02:30:33;;;;;;;4.20;2.17;;;22.80;45.30;;;23.19;34.21;98949.91;4991250;28;123117;-87
2022/07/15 02:33:02;;;;;;;3.13;1.77;;;22.80;45.50;;;23.18;34.27;98939.00;4984488;28;123416;-86
2022/07/15 02:35:30;;;;;;;3.93;2.10;;;22.70;45.60;;;23.12;34.45;98938.56;4995369;28;107665;-88
2022/07/15 02:37:57;;;;;;;2.97;2.07;;;22.70;45.80;;;23.06;34.44;98940.16;4983253;28;109054;-87
2022/07/15 02:40:24;;;;;;;3.43;2.10;;;22.70;46.00;;;23.01;34.56;98943.34;4994065;28;123878;-88
2022/07/15 02:42:55;;;;;;;4.07;2.17;;;22.60;46.10;;;22.98;34.86;98944.13;4999338;28;123784;-89
2022/07/15 02:45:26;;;;;;;2.13;1.90;;;22.60;46.10;;;22.93;34.80;98948.88;4986015;28;110079;-89
2022/07/15 02:47:53;;;;;;;3.13;2.10;;;22.60;46.20;;;22.92;35.07;98950.09;4988974;28;109138;-88
2022/07/15 02:50:21;;;;;;;4.43;2.00;;;22.50;46.40;;;22.90;35.15;98948.88;4984301;28;124892;-88
2022/07/15 02:52:48;;;;;;;4.37;1.70;;;22.50;46.50;;;22.89;34.81;98948.06;4990040;28;123811;-88
2022/07/15 02:55:16;;;;;;;2.87;2.00;;;22.50;46.60;;;22.88;35.01;98946.44;4984197;28;108939;-89
2022/07/15 02:57:42;;;;;;;3.17;1.90;;;22.50;46.70;;;22.87;35.14;98949.66;4992024;28;109270;-88
2022/07/15 03:00:13;;;;;;;2.30;1.90;;;22.40;46.70;;;22.85;35.25;98952.06;4991243;28;123123;-88
2022/07/15 03:02:40;;;;;;;3.93;2.07;;;22.40;46.90;;;22.83;35.34;98948.81;4993267;28;122449;-88
2022/07/15 03:05:07;;;;;;;2.90;1.87;;;22.40;46.90;;;22.82;35.56;98953.66;4970170;28;108168;-87
2022/07/15 03:07:34;;;;;;;1.87;1.67;;;22.40;47.10;;;22.82;35.43;98962.09;4992110;28;108773;-87
2022/07/15 03:10:00;;;;;;;2.37;2.03;;;22.40;47.20;;;22.82;35.62;98952.84;4984186;28;123941;-87
2022/07/15 03:12:27;;;;;;;3.13;1.70;;;22.40;47.40;;;22.81;35.71;98954.03;4983300;28;124363;-87
2022/07/15 03:14:53;;;;;;;2.73;2.03;;;22.40;47.40;;;22.80;35.56;98961.66;4975589;28;109170;-87
2022/07/15 03:17:20;;;;;;;5.20;1.90;;;22.30;47.40;;;22.77;35.49;98962.47;4984642;28;109227;-89
2022/07/15 03:19:46;;;;;;;4.47;2.60;;;22.30;47.50;;;22.76;35.72;98963.66;4985941;28;124441;-87
2022/07/15 03:22:13;;;;;;;2.77;2.00;;;22.30;47.60;;;22.73;35.87;98956.00;4983865;28;123920;-88
2022/07/15 03:24:39;;;;;;;7.33;2.23;;;22.30;47.70;;;22.72;35.73;98957.19;4989136;28;109054;-88
2022/07/15 03:27:06;;;;;;;2.80;1.50;;;22.30;47.80;;;22.71;35.88;98959.19;4984502;28;108221;-88
2022/07/15 03:29:32;;;;;;;2.90;1.80;;;22.30;47.90;;;22.69;36.21;98964.41;4989975;28;123338;-88
2022/07/15 03:31:59;;;;;;;3.07;1.73;;;22.20;48.00;;;22.67;36.16;98955.53;4988527;28;124032;-88
2022/07/15 03:34:26;;;;;;;2.60;1.90;;;22.20;48.10;;;22.67;36.27;98963.97;4992362;28;109735;-89
2022/07/15 03:36:53;;;;;;;2.50;1.90;;;22.20;48.20;;;22.65;36.41;98966.41;4987013;28;109886;-88
2022/07/15 03:39:21;;;;;;;4.20;1.93;;;22.20;48.30;;;22.64;36.58;98964.75;4988368;28;124465;-88
2022/07/15 03:41:48;;;;;;;4.03;1.67;;;22.20;48.40;;;22.63;36.67;98965.97;4988402;28;124059;-87
2022/07/15 03:44:15;;;;;;;3.97;2.30;;;22.20;48.50;;;22.62;36.69;98967.19;4989215;28;108978;-88
2022/07/15 03:46:41;;;;;;;3.43;2.10;;;22.20;48.60;;;22.60;36.51;98968.78;4993164;28;109823;-90
2022/07/15 03:49:07;;;;;;;2.50;2.03;;;22.10;48.60;;;22.58;36.41;98971.97;4990096;28;124231;-88
2022/07/15 03:51:35;;;;;;;3.00;1.90;;;22.10;48.60;;;22.56;36.78;98974.34;4990042;28;123860;-88
2022/07/15 03:54:03;;;;;;;2.40;1.77;;;22.10;48.60;;;22.54;36.76;98971.13;4987136;28;109063;-89
2022/07/15 03:56:30;;;;;;;2.73;2.23;;;22.10;48.70;;;22.54;36.80;98976.75;4988462;28;108211;-89
2022/07/15 03:58:57;;;;;;;3.83;2.00;;;22.10;48.80;;;22.51;36.53;98977.53;4992312;28;123969;-89
2022/07/15 04:01:23;;;;;;;4.47;2.20;;;22.10;48.70;;;22.50;36.87;98973.91;4989589;28;123534;-88
2022/07/15 04:03:52;;;;;;;3.20;2.03;;;22.10;48.70;;;22.58;36.70;98968.34;4987941;28;108477;-88
2022/07/15 04:06:21;;;;;;;3.70;2.50;;;22.10;48.90;;;22.75;36.68;98975.31;4985087;28;108179;-89
2022/07/15 04:08:49;;;;;;;8.43;2.23;;;22.10;49.10;;;22.88;36.49;98977.44;4983692;28;124070;-88
2022/07/15 04:11:16;;;;;;;4.33;2.80;;;22.20;49.20;;;22.90;36.50;98972.22;4977712;28;124322;-88
2022/07/15 04:13:42;;;;;;;4.30;2.00;;;22.20;49.10;;;22.93;36.53;98981.91;4979985;28;109003;-89
2022/07/15 04:16:11;;;;;;;3.13;2.33;;;22.30;49.30;;;22.98;36.56;98977.94;4979849;28;109222;-89
2022/07/15 04:18:38;;;;;;;3.13;1.90;;;22.30;49.30;;;22.98;36.28;98975.13;4989608;28;124650;-87
2022/07/15 04:21:05;;;;;;;5.83;2.53;;;22.80;49.70;;;22.94;36.71;98980.69;4978017;28;123043;-88
2022/07/15 04:23:31;;;;;;;3.10;2.00;;;22.30;49.20;;;22.88;36.44;98980.25;4986048;28;110011;-88
2022/07/15 04:25:58;;;;;;;4.83;2.27;;;22.30;49.10;;;22.81;36.22;98991.47;4992439;28;110232;-88
2022/07/15 04:28:24;;;;;;;3.10;1.97;;;22.30;49.00;;;22.78;36.76;98985.78;4991965;28;124132;-89
2022/07/15 04:30:51;;;;;;;3.70;2.10;;;22.20;48.90;;;22.75;36.58;98981.75;4992743;28;124224;-87
2022/07/15 04:33:19;;;;;;;3.53;2.10;;;22.20;49.10;;;22.75;36.62;98981.75;4988375;28;109225;-88
2022/07/15 04:35:46;;;;;;;4.30;2.00;;;22.20;49.20;;;22.75;36.66;98984.56;4990784;28;108854;-87
2022/07/15 04:38:13;;;;;;;2.40;1.80;;;22.20;49.20;;;22.76;36.75;98983.38;4982008;28;124852;-88
2022/07/15 04:40:40;;;;;;;6.23;2.20;;;22.20;49.20;;;22.76;36.72;98983.38;4991989;28;123850;-89
2022/07/15 04:43:07;;;;;;;3.70;2.40;;;22.30;49.40;;;22.79;36.92;98987.44;4987945;28;109350;-88
2022/07/15 04:45:34;;;;;;;4.23;2.37;;;22.30;49.40;;;22.79;36.75;98988.25;4989562;28;108935;-87
2022/07/15 04:48:00;;;;;;;4.03;2.30;;;22.30;49.40;;;22.81;36.63;98990.66;4989752;28;124188;-88
2022/07/15 04:53:13;;;;;;;3.63;2.00;;;22.30;49.30;;;22.77;36.71;98990.63;4995284;28;109943;-89
2022/07/15 04:55:39;;;;;;;9.00;2.80;;;22.30;49.40;;;22.79;36.81;98985.41;4993247;28;107978;-87
2022/07/15 04:58:06;;;;;;;5.37;3.00;;;22.30;49.50;;;22.76;37.23;98986.19;4997959;28;124640;-89
2022/07/15 05:00:32;;;;;;;3.30;2.40;;;22.30;49.50;;;22.75;37.19;98987.38;4993673;28;125451;-87
2022/07/15 05:02:59;;;;;;;4.30;2.73;;;22.20;49.80;;;22.73;37.28;98987.00;4971518;28;108076;-88
2022/07/15 05:05:25;;;;;;;4.10;2.63;;;22.20;49.80;;;22.74;37.43;98984.97;4990240;28;108658;-88
2022/07/15 05:07:52;;;;;;;6.27;2.57;;;22.20;50.00;;;22.78;37.17;98992.22;4989147;28;124616;-87
2022/07/15 05:10:18;;;;;;;9.17;2.67;;;22.20;50.10;;;22.80;37.32;98986.22;4985663;28;122954;-88
2022/07/15 05:12:45;;;;;;;6.10;2.73;;;22.20;50.00;;;22.81;37.15;98985.84;4987683;28;110234;-87
2022/07/15 05:15:11;;;;;;;2.63;2.40;;;22.30;50.10;;;22.84;37.51;98976.59;4987465;28;109069;-88
2022/07/15 05:17:40;;;;;;;4.00;2.13;;;22.30;50.20;;;22.86;37.58;98984.66;4987903;28;124731;-87
2022/07/15 05:20:07;;;;;;;3.00;2.30;;;22.30;50.30;;;22.89;37.44;98987.53;4987891;28;124284;-89
2022/07/15 05:22:34;;;;;;;4.43;2.30;;;22.30;50.40;;;22.93;37.75;98982.69;4992772;28;109014;-87
2022/07/15 05:25:00;;;;;;;3.80;2.53;;;22.30;50.50;;;23.00;37.71;98993.25;4990504;28;108996;-83
2022/07/15 05:27:27;;;;;;;3.37;2.47;;;22.40;50.80;;;23.07;37.43;98984.03;4987747;28;124599;-88
2022/07/15 05:29:53;;;;;;;3.73;2.30;;;22.40;50.70;;;23.11;37.21;98988.50;4989292;28;122168;-89
2022/07/15 05:32:20;;;;;;;5.40;2.50;;;22.50;50.70;;;23.16;37.25;98990.16;4985452;28;109439;-88
2022/07/15 05:34:46;;;;;;;4.10;2.70;;;22.50;50.50;;;23.17;37.10;99003.03;4979064;28;108033;-86
2022/07/15 05:37:13;;;;;;;6.80;2.70;;;22.50;50.30;;;23.17;36.76;98996.59;4988366;28;123821;-86
2022/07/15 05:39:53;;;;;;;3.10;2.47;;;22.60;50.10;;;23.15;36.48;98991.34;4984667;28;123794;-86
2022/07/15 05:42:21;;;;;;;3.90;2.17;;;22.50;49.80;;;23.17;36.48;98997.41;4995710;28;108927;-86
2022/07/15 05:44:48;;;;;;;5.87;2.97;;;22.50;49.60;;;23.16;36.23;98995.78;4974863;28;109554;-86
2022/07/15 05:47:15;;;;;;;7.30;3.10;;;22.50;49.40;;;23.10;36.23;98988.88;4990334;28;124548;-87
2022/07/15 05:49:41;;;;;;;8.17;3.20;;;22.50;49.30;;;23.08;36.67;99002.59;4990317;28;122890;-85
2022/07/15 05:52:09;;;;;;;6.67;2.90;;;22.40;49.60;;;23.10;36.64;99002.97;4994800;28;109626;-84
2022/07/15 05:54:37;;;;;;;9.83;2.50;;;22.40;49.70;;;23.11;36.85;99004.63;4995112;28;108984;-84
2022/07/15 05:57:04;;;;;;;5.27;2.63;;;22.40;49.90;;;23.15;36.79;99002.63;4987401;28;124124;-84
2022/07/15 05:59:31;;;;;;;3.63;2.40;;;22.50;50.20;;;23.25;36.54;99006.72;4989427;28;123966;-83
2022/07/15 06:01:58;;;;;;;7.07;2.87;;;22.50;50.00;;;23.32;36.26;99010.41;4989161;28;109521;-82
2022/07/15 06:04:28;;;;;;;5.53;2.10;;;22.60;50.00;;;23.38;36.69;99002.38;4991730;28;109965;-84
2022/07/15 06:06:55;;;;;;;6.00;2.83;;;22.50;49.70;;;23.48;36.32;99007.28;4993951;28;124260;-83
2022/07/15 06:09:22;;;;;;;4.33;2.60;;;22.70;49.80;;;23.57;36.28;99010.53;4990260;28;123617;-83
2022/07/15 06:11:48;;;;;;;6.77;2.23;;;22.80;49.70;;;23.64;36.01;99009.75;4981980;28;108947;-83
2022/07/15 06:14:15;;;;;;;9.23;2.70;;;22.90;49.50;;;23.71;35.75;99007.00;4987048;28;109175;-83
2022/07/15 06:16:42;;;;;;;6.00;2.87;;;23.10;49.40;;;23.77;35.34;99010.25;4989195;28;124132;-83
2022/07/15 06:19:10;;;;;;;6.07;2.80;;;23.00;48.80;;;23.80;35.41;99013.09;4990602;28;124129;-82
2022/07/15 06:21:37;;;;;;;4.93;2.33;;;23.00;48.90;;;23.85;35.57;99014.72;4992486;28;109224;-81
2022/07/15 06:24:07;;;;;;;6.00;2.77;;;23.10;48.90;;;23.91;35.53;99001.88;4989149;28;109224;-82
2022/07/15 06:26:33;;;;;;;5.60;2.80;;;23.20;48.80;;;23.99;35.06;99008.31;4985026;28;123869;-81
2022/07/15 06:29:00;;;;;;;3.77;2.50;;;23.20;48.60;;;24.06;34.55;99008.34;4988412;28;123909;-81
2022/07/15 06:31:27;;;;;;;5.00;2.17;;;23.30;48.30;;;24.14;34.58;99003.53;4986119;28;109353;-80
2022/07/15 06:33:53;;;;;;;3.73;2.07;;;23.40;48.10;;;24.16;34.09;99007.59;4979741;28;109013;-84
2022/07/15 06:36:20;;;;;;;7.20;2.70;;;23.40;47.50;;;24.21;33.55;98997.91;4985249;28;124087;-82
2022/07/15 06:38:49;;;;;;;7.27;2.70;;;23.50;46.90;;;24.20;33.64;99002.72;4990177;28;124263;-81
2022/07/15 06:41:16;;;;;;;4.23;2.17;;;23.40;46.80;;;24.24;33.60;99003.56;4987755;28;109441;-81
2022/07/15 06:43:45;;;;;;;16.90;2.63;;;23.50;46.80;;;24.26;33.08;99000.34;4993616;28;108992;-83
2022/07/15 06:46:12;;;;;;;2.83;1.90;;;23.50;46.20;;;24.28;33.13;99002.75;4991152;28;123467;-83
2022/07/15 06:48:39;;;;;;;3.83;1.90;;;23.60;46.10;;;24.36;32.79;99004.38;4991604;28;124390;-82
2022/07/15 06:51:06;;;;;;;5.23;2.30;;;23.60;46.00;;;24.45;32.85;99002.03;4988428;28;110323;-81
2022/07/15 06:53:32;;;;;;;5.33;1.83;;;23.70;45.60;;;24.53;32.40;98998.00;4990488;28;109950;-83
2022/07/15 06:55:59;;;;;;;5.63;2.43;;;23.80;45.40;;;24.66;32.24;99002.06;4987859;28;125222;-82
2022/07/15 06:58:25;;;;;;;4.70;2.10;;;23.90;45.10;;;24.69;31.33;99001.25;4993784;28;123904;-82
2022/07/15 07:00:52;;;;;;;4.13;2.00;;;23.90;44.00;;;24.68;31.47;99005.25;4989276;28;108992;-82
2022/07/15 07:03:19;;;;;;;3.47;2.10;;;23.90;44.30;;;24.72;31.81;99001.63;4979453;28;108597;-82
2022/07/15 07:05:45;;;;;;;5.80;2.27;;;23.90;44.30;;;24.74;31.59;98991.53;4987838;28;123954;-81
2022/07/15 07:08:12;;;;;;;4.90;2.20;;;24.00;44.40;;;24.81;31.71;98996.41;4980272;28;123922;-81
2022/07/15 07:10:38;;;;;;;5.10;1.90;;;24.00;44.40;;;24.92;31.36;98997.19;4990647;28;108413;-82
2022/07/15 07:13:05;;;;;;;6.23;2.53;;;24.10;44.30;;;24.98;30.62;98989.91;4981144;28;108796;-82
2022/07/15 07:15:31;;;;;;;5.63;2.10;;;24.20;43.30;;;25.01;30.79;98999.63;4991120;28;124099;-83
2022/07/15 07:17:58;;;;;;;2.67;1.97;;;24.20;43.50;;;25.08;31.03;98997.59;4982845;28;123973;-82
2022/07/15 07:20:24;;;;;;;2.73;1.70;;;24.30;43.60;;;25.15;30.74;98994.00;4991775;28;108218;-83
2022/07/15 07:22:51;;;;;;;5.50;2.40;;;24.30;43.60;;;25.27;31.26;98996.38;4991132;28;108885;-83
2022/07/15 07:25:17;;;;;;;2.83;1.83;;;24.50;44.20;;;25.43;31.02;98995.94;4991834;28;124194;-82
2022/07/15 07:27:44;;;;;;;2.60;2.07;;;24.60;44.00;;;25.53;30.26;98997.13;4990697;28;123948;-85
2022/07/15 07:30:11;;;;;;;4.30;2.20;;;24.70;43.40;;;25.55;29.80;98989.84;5000088;28;107708;-86
2022/07/15 07:32:38;;;;;;;4.20;2.70;;;24.70;42.50;;;25.57;29.69;98992.25;4985150;28;109144;-85
2022/07/15 07:35:04;;;;;;;3.10;1.77;;;24.80;42.60;;;25.63;29.65;98995.47;4991614;28;124769;-87
2022/07/15 07:37:37;;;;;;;3.10;1.63;;;24.90;42.50;;;25.65;29.48;98985.34;4988896;28;122816;-84
2022/07/15 07:40:07;;;;;;;3.57;1.90;;;24.30;41.60;;;25.66;29.48;98989.03;4994965;28;110877;-87
2022/07/15 07:42:34;;;;;;;2.93;1.63;;;24.90;42.20;;;25.68;29.73;98992.22;4992025;28;109492;-86
2022/07/15 07:45:01;;;;;;;6.07;2.10;;;24.90;42.10;;;25.72;29.30;98993.84;4986960;28;124396;-85
2022/07/15 07:47:28;;;;;;;4.70;2.40;;;25.00;42.00;;;25.78;29.45;98991.38;4990412;28;121991;-85
2022/07/15 07:49:55;;;;;;;2.70;1.93;;;25.10;41.80;;;25.82;29.19;98999.84;4990212;28;109209;-85
2022/07/15 07:52:22;;;;;;;3.33;2.30;;;25.10;41.40;;;25.85;28.70;98991.41;4983497;28;109130;-86
2022/07/15 07:54:48;;;;;;;2.77;1.70;;;25.10;40.90;;;25.89;28.14;98997.03;4981435;28;124060;-85
2022/07/15 07:57:15;;;;;;;5.40;2.27;;;25.10;40.10;;;25.84;27.03;98989.75;4986826;28;123026;-86
2022/07/15 07:59:41;;;;;;;3.47;1.97;;;25.10;38.60;;;25.76;27.48;98990.97;4990048;28;109586;-85
2022/07/15 08:02:08;;;;;;;3.97;2.23;;;25.00;38.90;;;25.73;27.21;98983.31;4988867;28;109613;-86
2022/07/15 08:04:34;;;;;;;4.87;1.83;;;25.00;39.20;;;25.70;27.60;98981.31;4987808;28;123816;-85
2022/07/15 08:07:01;;;;;;;3.40;2.03;;;25.00;38.80;;;25.72;27.33;98981.72;4985503;28;124113;-86
2022/07/15 08:09:27;;;;;;;4.63;2.40;;;25.00;39.10;;;25.73;27.19;98977.66;4988455;28;108872;-83
2022/07/15 08:11:54;;;;;;;3.17;2.03;;;25.00;39.00;;;25.73;27.35;98986.94;4988596;28;109080;-84
2022/07/15 08:14:20;;;;;;;5.40;1.80;;;25.00;38.40;;;25.73;26.95;98978.44;4976802;28;123935;-84
2022/07/15 08:16:47;;;;;;;6.63;2.00;;;24.40;37.90;;;25.69;27.13;98982.53;4986709;28;124100;-83
2022/07/15 08:19:16;;;;;;;2.13;1.40;;;25.00;38.00;;;25.68;27.45;98980.91;4983530;28;109135;-85
2022/07/15 08:21:43;;;;;;;6.13;2.00;;;25.00;38.50;;;25.73;27.21;98983.31;4985954;28;108945;-85
2022/07/15 08:24:11;;;;;;;3.03;1.90;;;25.00;38.30;;;25.78;27.06;98980.06;4986559;28;123376;-85
2022/07/15 08:26:38;;;;;;;3.40;2.13;;;25.10;38.40;;;25.86;27.42;98986.53;4979938;28;122976;-90
2022/07/15 08:29:05;;;;;;;3.53;2.00;;;25.20;38.30;;;25.89;27.22;98980.84;4967541;28;109653;-85
2022/07/15 08:31:33;;;;;;;3.93;2.00;;;25.20;38.30;;;25.90;27.12;98988.13;4981685;28;109396;-84
2022/07/15 08:33:59;;;;;;;4.73;1.60;;;25.20;38.20;;;25.93;27.29;98981.66;5002267;28;123756;-84
2022/07/15 08:36:26;;;;;;;2.13;1.70;;;25.20;38.20;;;25.96;26.89;98983.66;4989107;28;123821;-85
2022/07/15 08:38:53;;;;;;;3.67;1.83;;;25.30;38.30;;;26.01;27.09;98976.75;4988074;28;109350;-84
2022/07/15 08:41:19;;;;;;;4.50;2.13;;;25.30;38.00;;;26.03;26.88;98970.66;4986743;28;108995;-84
2022/07/15 08:43:46;;;;;;;3.67;1.90;;;25.30;37.80;;;26.04;26.86;98977.97;4986640;28;124337;-84
2022/07/15 08:46:14;;;;;;;2.50;1.40;;;25.30;37.90;;;26.03;26.93;98977.13;4963981;28;124854;-85
2022/07/15 08:48:48;;;;;;;2.60;1.70;;;25.30;37.50;;;25.98;26.39;98980.41;4986818;28;109062;-86
2022/07/15 08:51:15;;;;;;;4.77;2.03;;;25.30;37.30;;;25.95;26.55;98979.22;4976849;28;108962;-85
2022/07/15 08:53:42;;;;;;;3.13;1.87;;;25.30;37.40;;;25.95;26.66;98982.06;4987208;28;124539;-85
2022/07/15 08:56:10;;;;;;;2.73;1.87;;;25.30;37.50;;;25.93;26.38;98984.47;4985996;28;124969;-85
2022/07/15 08:58:36;;;;;;;5.40;1.40;;;25.30;37.30;;;25.94;26.97;98974.75;4987233;28;109232;-86
2022/07/15 09:01:03;;;;;;;6.60;2.10;;;25.30;37.60;;;25.96;26.55;98969.50;4989674;28;109116;-85
2022/07/15 09:03:30;;;;;;;2.90;1.53;;;25.30;37.50;;;26.00;26.98;98977.97;4986304;28;123946;-85
2022/07/15 09:05:57;;;;;;;4.63;1.73;;;25.40;37.60;;;26.02;26.80;98975.53;4989921;28;123995;-85
2022/07/15 09:08:24;;;;;;;4.40;1.90;;;25.40;37.80;;;26.05;27.11;98976.72;4989649;28;109709;-85
2022/07/15 09:11:00;;;;;;;4.00;1.90;;;25.40;38.00;;;26.08;26.64;98979.53;4992028;28;108590;-82
2022/07/15 09:13:40;;;;;;;5.43;1.77;;;25.50;37.90;;;26.10;26.62;98984.78;4986330;28;124883;-88
2022/07/15 09:16:19;;;;;;;4.73;1.83;;;25.50;37.80;;;26.07;26.35;98977.13;4989043;28;123686;-83
2022/07/15 09:18:46;;;;;;;4.07;2.10;;;25.40;37.50;;;26.07;26.73;98979.97;4993691;28;110324;-84
2022/07/15 09:21:27;;;;;;;5.07;2.93;;;25.40;37.70;;;26.04;26.65;98980.78;4991468;28;110105;-87
2022/07/15 09:23:54;;;;;;;4.23;2.23;;;25.50;37.80;;;26.04;27.18;98980.78;4983637;28;124011;-85
2022/07/15 09:26:36;;;;;;;2.33;1.60;;;25.40;37.80;;;26.02;26.94;98974.72;4990612;28;123839;-85
2022/07/15 09:36:01;;;;;;;2.90;1.83;;;25.50;38.20;;;25.98;27.34;98984.06;4993885;28;124702;-85
2022/07/15 09:37:57;;;;;;;8.33;1.90;;;25.50;38.20;;;26.05;27.44;98982.41;4994582;28;122808;-84
2022/07/15 09:40:24;;;;;;;2.07;1.60;;;25.50;38.60;;;26.12;27.10;98971.84;4996201;28;109664;-84
2022/07/15 09:43:05;;;;;;;6.67;1.93;;;25.50;38.50;;;26.17;27.58;98982.75;4997081;28;109298;-85
2022/07/15 09:45:35;;;;;;;3.17;1.97;;;25.60;38.40;;;26.24;27.45;98984.72;4985392;28;124156;-84
2022/07/15 09:48:12;;;;;;;2.57;1.60;;;25.60;38.40;;;26.26;27.46;98985.09;4993944;28;123807;-85
2022/07/15 09:50:40;;;;;;;2.80;2.00;;;25.70;38.30;;;26.32;27.66;98979.81;4990360;28;109490;-84
2022/07/15 09:53:16;;;;;;;3.23;1.90;;;25.70;38.40;;;26.35;26.74;98974.09;4982868;28;109099;-86
2022/07/15 09:55:43;;;;;;;5.37;2.30;;;25.70;37.80;;;26.34;27.10;98972.50;4994690;28;124408;-84
2022/07/15 09:58:10;;;;;;;3.70;1.87;;;25.70;37.90;;;26.34;26.97;98983.03;4986072;28;123695;-85
2022/07/15 10:00:37;;;;;;;5.20;1.93;;;25.70;38.00;;;26.37;26.71;98988.66;4977804;28;108539;-85
2022/07/15 10:03:04;;;;;;;3.70;2.23;;;25.80;37.80;;;26.39;26.60;98980.56;4997111;28;108285;-86
2022/07/15 10:05:35;;;;;;;3.90;2.20;;;25.80;37.70;;;26.38;26.05;98980.97;4992348;28;124338;-87
2022/07/15 10:08:03;;;;;;;3.03;1.80;;;25.80;37.00;;;26.32;26.69;98982.63;4995018;28;124977;-85
2022/07/15 10:10:34;;;;;;;3.53;2.00;;;25.70;37.00;;;26.26;26.44;98987.13;4988415;28;110356;-84
2022/07/15 10:13:16;;;;;;;3.30;2.10;;;25.70;37.10;;;26.21;26.46;98980.66;4984879;28;110037;-85
2022/07/15 10:16:21;;;;;;;2.50;1.87;;;25.70;37.20;;;26.15;26.81;98975.88;4983100;28;123381;-85
2022/07/15 10:19:26;;;;;;;6.80;2.00;;;25.70;37.30;;;26.17;26.96;98970.59;4975202;28;123884;-84
2022/07/15 10:22:17;;;;;;;4.23;2.10;;;25.70;38.40;;;26.26;27.05;98976.59;4978222;28;109409;-84
2022/07/15 10:25:08;;;;;;;3.70;1.80;;;25.70;38.10;;;26.33;26.97;98976.56;4987504;28;108900;-87
2022/07/15 10:28:14;;;;;;;2.83;1.63;;;25.70;38.10;;;26.35;27.17;98968.44;4995140;28;123702;-83
2022/07/15 10:30:42;;;;;;;7.70;2.70;;;25.90;38.00;;;26.34;26.92;98969.66;4984832;28;123908;-85
2022/07/15 10:33:19;;;;;;;6.43;2.13;;;25.80;37.70;;;26.31;27.05;98964.84;4980019;28;108553;-83